Catuipe, Brazil
Current Conditions -  °F | °C
As of 8:00 AM on Monday 20 Oct 2014 (Local Time) from SBPF Reporting Station
Few Clouds Few Clouds  
Wind Chill: 59°   Ceiling: Unl
Heat Index: 59°   Visibility: 6mi
Dew Point: 55°   Wind: 16mph
Humidity: 88%   Direction: 120°ESE
Pressure: 30.12"   Gusts: NA
Location:  28.25°S, 54.02°W
Report Text: SBPF 201100Z 12014KT 9999 FEW035 15/13 Q1020
Loading
Personal Weather Stations






























Interactive Weather Map
Tropical Storm Tracking
New forecast layout! Learn more

10-Day Weather Forecast

Advertisements
Track Severe Weather on mobile